Time,TemperatureF,DewpointF,PressureIn,WindDirection,WindDirectionDegrees,WindSpeedMPH,WindSpeedGustMPH,Humidity,HourlyPrecipIn,Conditions,Clouds,dailyrainin,SoftwareType,DateUTC
2013-01-31 00:01:00,22.0,16.0,29.92,ENE,63,0.0,4.0,79,0.00,,,0.00,,2013-01-31 06:01:00,
2013-01-31 08:02:00,21.0,14.0,30.14,NNE,28,9.0,16.0,75,0.00,,,0.00,,2013-01-31 14:02:00,
2013-01-31 08:11:00,21.0,14.0,30.14,NNE,28,9.0,16.0,75,0.00,,,0.00,,2013-01-31 14:11:00,
2013-01-31 08:22:00,21.0,14.0,30.15,North,11,6.0,16.0,75,0.00,,,0.00,,2013-01-31 14:22:00,
2013-01-31 08:32:00,20.0,12.0,30.16,North,5,10.0,16.0,72,0.00,,,0.00,,2013-01-31 14:32:00,
2013-01-31 08:42:00,20.0,12.0,30.16,North,5,10.0,16.0,72,0.00,,,0.00,,2013-01-31 14:42:00,
2013-01-31 08:52:00,19.0,11.0,30.18,NNE,15,9.0,18.0,72,0.00,,,0.00,,2013-01-31 14:52:00,
2013-01-31 09:03:00,19.0,11.0,30.19,NE,34,8.0,16.0,72,0.00,,,0.00,,2013-01-31 15:03:00,
2013-01-31 09:12:00,19.0,11.0,30.19,NE,34,8.0,16.0,72,0.00,,,0.00,,2013-01-31 15:12:00,
2013-01-31 09:22:00,19.0,11.0,30.22,North,355,7.0,14.0,71,0.00,,,0.00,,2013-01-31 15:22:00,
2013-01-31 09:32:00,18.0,11.0,30.23,NNE,24,10.0,16.0,72,0.00,,,0.00,,2013-01-31 15:32:00,
2013-01-31 09:42:00,18.0,11.0,30.23,NNE,24,10.0,16.0,72,0.00,,,0.00,,2013-01-31 15:42:00,
2013-01-31 09:51:00,18.0,10.0,30.26,NE,34,10.0,20.0,69,0.00,,,0.00,,2013-01-31 15:51:00,
2013-01-31 10:03:00,17.0,8.0,30.27,North,355,11.0,17.0,66,0.00,,,0.00,,2013-01-31 16:03:00,
2013-01-31 10:12:00,17.0,8.0,30.27,North,355,11.0,17.0,66,0.00,,,0.00,,2013-01-31 16:12:00,
2013-01-31 10:22:00,17.0,7.0,30.29,NNW,338,10.0,20.0,65,0.00,,,0.00,,2013-01-31 16:22:00,
2013-01-31 10:33:00,16.0,7.0,30.29,NE,45,10.0,17.0,67,0.00,,,0.00,,2013-01-31 16:33:00,
2013-01-31 10:42:00,16.0,7.0,30.29,NE,45,10.0,17.0,67,0.00,,,0.00,,2013-01-31 16:42:00,
2013-01-31 10:51:00,17.0,7.0,30.31,NNE,20,10.0,21.0,65,0.00,,,0.00,,2013-01-31 16:51:00,
2013-01-31 11:02:00,16.0,6.0,30.33,North,11,9.0,18.0,64,0.00,,,0.00,,2013-01-31 17:02:00,
2013-01-31 11:12:00,16.0,6.0,30.33,North,11,9.0,18.0,64,0.00,,,0.00,,2013-01-31 17:12:00,
2013-01-31 11:23:00,16.0,4.0,30.34,North,5,14.0,25.0,59,0.00,,,0.00,,2013-01-31 17:23:00,
2013-01-31 11:32:00,15.0,4.0,30.34,North,355,9.0,19.0,60,0.00,,,0.00,,2013-01-31 17:32:00,
2013-01-31 11:43:00,15.0,4.0,30.34,North,355,9.0,19.0,60,0.00,,,0.00,,2013-01-31 17:43:00,
2013-01-31 11:53:00,16.0,5.0,30.34,North,360,8.0,18.0,61,0.00,,,0.00,,2013-01-31 17:53:00,
2013-01-31 12:03:00,16.0,4.0,30.34,NNE,31,14.0,23.0,58,0.00,,,0.00,,2013-01-31 18:03:00,
2013-01-31 12:12:00,16.0,3.0,30.35,North,5,12.0,24.0,55,0.00,,,0.00,,2013-01-31 18:12:00,
2013-01-31 12:22:00,16.0,3.0,30.35,North,5,12.0,24.0,55,0.00,,,0.00,,2013-01-31 18:22:00,
2013-01-31 12:32:00,16.0,3.0,30.35,North,5,9.0,17.0,57,0.00,,,0.00,,2013-01-31 18:32:00,
2013-01-31 12:43:00,16.0,3.0,30.35,North,5,9.0,17.0,57,0.00,,,0.00,,2013-01-31 18:43:00,
2013-01-31 12:52:00,17.0,4.0,30.35,North,10,8.0,15.0,55,0.00,,,0.00,,2013-01-31 18:52:00,
2013-01-31 13:02:00,17.0,3.0,30.35,North,11,8.0,18.0,53,0.00,,,0.00,,2013-01-31 19:02:00,
2013-01-31 13:12:00,17.0,3.0,30.35,North,11,8.0,18.0,53,0.00,,,0.00,,2013-01-31 19:12:00,
2013-01-31 13:22:00,17.0,2.0,30.34,NNW,341,7.0,14.0,52,0.00,,,0.00,,2013-01-31 19:22:00,
2013-01-31 13:32:00,17.0,3.0,30.35,NNW,347,9.0,16.0,53,0.00,,,0.00,,2013-01-31 19:32:00,
2013-01-31 13:42:00,17.0,3.0,30.35,NNW,347,9.0,16.0,53,0.00,,,0.00,,2013-01-31 19:42:00,
2013-01-31 13:51:00,18.0,3.0,30.35,NNE,12,8.0,15.0,52,0.00,,,0.00,,2013-01-31 19:51:00,
2013-01-31 14:02:00,17.0,3.0,30.35,WNW,294,6.0,15.0,53,0.00,,,0.00,,2013-01-31 20:02:00,
2013-01-31 14:11:00,17.0,3.0,30.35,WNW,294,6.0,15.0,53,0.00,,,0.00,,2013-01-31 20:11:00,
2013-01-31 14:22:00,18.0,3.0,30.35,North,5,5.0,14.0,52,0.00,,,0.00,,2013-01-31 20:22:00,
2013-01-31 14:31:00,19.0,3.0,30.34,WNW,298,10.0,20.0,50,0.00,,,0.00,,2013-01-31 20:31:00,
2013-01-31 14:42:00,19.0,3.0,30.34,WNW,298,10.0,20.0,50,0.00,,,0.00,,2013-01-31 20:42:00,
2013-01-31 14:52:00,18.0,1.0,30.34,NNE,20,10.0,18.0,46,0.00,,,0.00,,2013-01-31 20:52:00,
2013-01-31 15:02:00,19.0,3.0,30.34,North,349,7.0,15.0,48,0.00,,,0.00,,2013-01-31 21:02:00,
2013-01-31 15:12:00,19.0,3.0,30.34,North,349,7.0,15.0,48,0.00,,,0.00,,2013-01-31 21:12:00,
2013-01-31 15:22:00,19.0,3.0,30.35,North,360,9.0,16.0,48,0.00,,,0.00,,2013-01-31 21:22:00,
2013-01-31 15:32:00,19.0,3.0,30.35,North,360,9.0,16.0,48,0.00,,,0.00,,2013-01-31 21:32:00,
2013-01-31 15:42:00,19.0,3.0,30.35,North,360,9.0,16.0,48,0.00,,,0.00,,2013-01-31 21:42:00,
2013-01-31 15:52:00,18.0,3.0,30.35,North,9,6.0,14.0,50,0.00,,,0.00,,2013-01-31 21:52:00,
2013-01-31 16:03:00,18.0,3.0,30.35,North,350,6.0,12.0,50,0.00,,,0.00,,2013-01-31 22:03:00,
2013-01-31 16:11:00,18.0,3.0,30.35,North,350,6.0,12.0,50,0.00,,,0.00,,2013-01-31 22:11:00,
2013-01-31 16:22:00,18.0,3.0,30.35,NNW,344,6.0,14.0,50,0.00,,,0.00,,2013-01-31 22:22:00,
2013-01-31 16:32:00,18.0,3.0,30.35,NW,324,4.0,12.0,50,0.00,,,0.00,,2013-01-31 22:32:00,
2013-01-31 16:42:00,18.0,3.0,30.35,NW,324,4.0,12.0,50,0.00,,,0.00,,2013-01-31 22:42:00,
2013-01-31 16:51:00,18.0,3.0,30.36,WNW,289,5.0,12.0,51,0.00,,,0.00,,2013-01-31 22:51:00,
2013-01-31 17:02:00,18.0,3.0,30.36,NNE,19,4.0,13.0,51,0.00,,,0.00,,2013-01-31 23:02:00,
2013-01-31 17:12:00,18.0,3.0,30.36,NNE,19,4.0,13.0,51,0.00,,,0.00,,2013-01-31 23:12:00,
2013-01-31 17:22:00,19.0,3.0,30.36,NNE,30,5.0,10.0,50,0.00,,,0.00,,2013-01-31 23:22:00,
2013-01-31 17:32:00,18.0,3.0,30.35,NW,322,4.0,8.0,51,0.00,,,0.00,,2013-01-31 23:32:00,
2013-01-31 17:42:00,18.0,3.0,30.35,NW,322,4.0,8.0,51,0.00,,,0.00,,2013-01-31 23:42:00,
2013-01-31 17:52:00,18.0,3.0,30.36,NNE,16,4.0,11.0,51,0.00,,,0.00,,2013-01-31 23:52:00,
2013-01-31 18:01:00,17.0,3.0,30.36,North,5,4.0,9.0,53,0.00,,,0.00,,2013-02-01 00:01:00,
2013-01-31 18:11:00,17.0,3.0,30.36,North,5,4.0,9.0,53,0.00,,,0.00,,2013-02-01 00:11:00,
2013-01-31 18:22:00,17.0,3.0,30.36,NNW,338,3.0,6.0,54,0.00,,,0.00,,2013-02-01 00:22:00,
2013-01-31 18:32:00,16.0,3.0,30.36,NNW,339,2.0,6.0,56,0.00,,,0.00,,2013-02-01 00:32:00,
2013-01-31 18:42:00,16.0,3.0,30.36,NNW,339,2.0,6.0,56,0.00,,,0.00,,2013-02-01 00:42:00,
2013-01-31 18:51:00,15.0,3.0,30.35,NNE,15,1.0,5.0,57,0.00,,,0.00,,2013-02-01 00:51:00,
2013-01-31 19:01:00,16.0,3.0,30.35,ENE,71,1.0,3.0,57,0.00,,,0.00,,2013-02-01 01:01:00,
2013-01-31 19:11:00,16.0,3.0,30.35,NE,56,2.0,6.0,56,0.00,,,0.00,,2013-02-01 01:11:00,
2013-01-31 19:21:00,16.0,3.0,30.35,NE,56,2.0,6.0,56,0.00,,,0.00,,2013-02-01 01:21:00,
2013-01-31 19:32:00,15.0,2.0,30.36,ESE,102,0.0,5.0,56,0.00,,,0.00,,2013-02-01 01:32:00,
2013-01-31 19:42:00,15.0,2.0,30.36,ESE,102,0.0,5.0,56,0.00,,,0.00,,2013-02-01 01:42:00,
2013-01-31 19:52:00,15.0,2.0,30.37,SE,124,0.0,3.0,55,0.00,,,0.00,,2013-02-01 01:52:00,
2013-01-31 20:02:00,15.0,2.0,30.38,SE,124,0.0,3.0,56,0.00,,,0.00,,2013-02-01 02:02:00,
2013-01-31 20:11:00,15.0,2.0,30.38,SE,124,0.0,3.0,56,0.00,,,0.00,,2013-02-01 02:11:00,
2013-01-31 20:21:00,15.0,2.0,30.38,SE,124,0.0,2.0,56,0.00,,,0.00,,2013-02-01 02:21:00,
2013-01-31 20:32:00,15.0,2.0,30.39,SE,124,0.0,3.0,56,0.00,,,0.00,,2013-02-01 02:32:00,
2013-01-31 20:42:00,15.0,2.0,30.39,SE,124,0.0,3.0,56,0.00,,,0.00,,2013-02-01 02:42:00,
2013-01-31 20:52:00,15.0,2.0,30.40,SE,146,1.0,4.0,56,0.00,,,0.00,,2013-02-01 02:52:00,
2013-01-31 21:02:00,15.0,2.0,30.40,SE,136,0.0,3.0,55,0.00,,,0.00,,2013-02-01 03:02:00,
2013-01-31 21:12:00,15.0,2.0,30.40,SE,136,0.0,3.0,55,0.00,,,0.00,,2013-02-01 03:12:00,
2013-01-31 21:21:00,15.0,2.0,30.40,SE,136,3.0,5.0,55,0.00,,,0.00,,2013-02-01 03:21:00,
2013-01-31 21:32:00,15.0,2.0,30.40,SE,132,1.0,4.0,56,0.00,,,0.00,,2013-02-01 03:32:00,
2013-01-31 21:42:00,15.0,2.0,30.40,SE,132,1.0,4.0,56,0.00,,,0.00,,2013-02-01 03:42:00,
2013-01-31 21:51:00,15.0,2.0,30.40,SE,132,1.0,4.0,56,0.00,,,0.00,,2013-02-01 03:51:00,
2013-01-31 22:02:00,15.0,2.0,30.41,SE,131,1.0,6.0,56,0.00,,,0.00,,2013-02-01 04:02:00,
2013-01-31 22:11:00,15.0,2.0,30.41,SE,131,1.0,6.0,56,0.00,,,0.00,,2013-02-01 04:11:00,
2013-01-31 22:21:00,15.0,3.0,30.41,SE,131,2.0,4.0,58,0.00,,,0.00,,2013-02-01 04:21:00,
2013-01-31 22:32:00,15.0,4.0,30.41,SE,131,1.0,4.0,60,0.00,,,0.00,,2013-02-01 04:32:00,
2013-01-31 22:41:00,15.0,4.0,30.41,SE,131,1.0,4.0,60,0.00,,,0.00,,2013-02-01 04:41:00,
2013-01-31 22:51:00,15.0,2.0,30.41,SE,138,2.0,6.0,56,0.00,,,0.00,,2013-02-01 04:51:00,
2013-01-31 23:03:00,15.0,3.0,30.40,SE,125,3.0,7.0,58,0.00,,,0.00,,2013-02-01 05:03:00,
2013-01-31 23:11:00,15.0,3.0,30.40,SE,125,3.0,7.0,58,0.00,,,0.00,,2013-02-01 05:11:00,
2013-01-31 23:22:00,15.0,4.0,30.40,SE,124,2.0,5.0,61,0.00,,,0.00,,2013-02-01 05:22:00,
2013-01-31 23:32:00,14.0,3.0,30.39,SE,144,3.0,7.0,61,0.00,,,0.00,,2013-02-01 05:32:00,
2013-01-31 23:42:00,14.0,3.0,30.39,SE,144,3.0,7.0,61,0.00,,,0.00,,2013-02-01 05:42:00,
2013-01-31 23:52:00,14.0,3.0,30.39,SE,127,2.0,5.0,61,0.00,,,0.00,,2013-02-01 05:52:00,